Time;durP1;ratioP1;P1;durP2;ratioP2;P2;SDS_P1;SDS_P2;PMS_P1;PMS_P2;Temp;Humidity;BMP_temperature;BMP_pressure;BME280_temperature;BME280_humidity;BME280_pressure;Samples;Min_cycle;Max_cycle;Signal;HPM_P1;HPM_P2
2022/06/01 00:01:02;;;;;;;5.28;4.60;;;14.30;59.40;;;;;;5046494;28;20045;-80
2022/06/01 00:03:35;;;;;;;4.53;3.80;;;14.30;59.40;;;;;;5045751;28;20221;-79
2022/06/01 00:06:01;;;;;;;5.57;4.10;;;14.30;59.40;;;;;;5015692;28;20063;-80
2022/06/01 00:08:27;;;;;;;6.18;4.22;;;14.30;59.40;;;;;;5044616;28;20282;-80
2022/06/01 00:10:53;;;;;;;6.22;5.15;;;14.30;59.40;;;;;;5051596;28;20045;-81
2022/06/01 00:13:20;;;;;;;6.10;4.85;;;14.30;59.50;;;;;;5047156;28;20037;-81
2022/06/01 00:15:46;;;;;;;6.10;5.22;;;14.30;59.50;;;;;;5018214;28;20037;-81
2022/06/01 00:18:12;;;;;;;5.18;3.72;;;14.30;59.50;;;;;;5045120;28;20047;-80
2022/06/01 00:20:38;;;;;;;4.20;3.80;;;14.20;59.40;;;;;;5044880;28;20045;-80
2022/06/01 00:23:05;;;;;;;4.97;4.32;;;14.30;59.40;;;;;;5040556;28;20032;-81
2022/06/01 00:25:31;;;;;;;5.53;4.78;;;14.20;59.30;;;;;;5050755;28;20052;-81
2022/06/01 00:27:56;;;;;;;4.78;4.15;;;14.30;59.40;;;;;;5055702;28;20148;-82
2022/06/01 00:30:22;;;;;;;5.05;4.55;;;14.30;59.40;;;;;;5056912;28;20123;-81
2022/06/01 00:32:48;;;;;;;4.88;4.25;;;14.20;59.30;;;;;;5057289;28;20095;-81
2022/06/01 00:35:18;;;;;;;5.43;4.20;;;14.20;59.40;;;;;;5048878;28;20049;-81
2022/06/01 00:37:43;;;;;;;4.78;4.10;;;14.20;59.40;;;;;;5027138;28;20045;-81
2022/06/01 00:40:12;;;;;;;4.97;4.45;;;14.20;59.30;;;;;;5055788;28;20052;-81
2022/06/01 00:42:39;;;;;;;6.60;5.15;;;14.20;59.30;;;;;;5056841;28;20056;-81
2022/06/01 00:45:07;;;;;;;5.70;5.10;;;14.10;59.30;;;;;;5054577;28;20047;-81
2022/06/01 00:47:33;;;;;;;5.80;4.95;;;14.10;59.20;;;;;;5040656;28;20048;-81
2022/06/01 00:50:25;;;;;;;5.13;4.63;;;14.10;59.30;;;;;;5037331;28;20045;-81
2022/06/01 00:53:01;;;;;;;7.00;5.25;;;14.10;59.30;;;;;;5031240;28;20049;-81
2022/06/01 00:55:34;;;;;;;5.82;4.68;;;14.00;59.30;;;;;;5027667;28;20045;-81
2022/06/01 00:58:12;;;;;;;5.00;4.50;;;14.10;59.40;;;;;;5019886;28;20037;-81
2022/06/01 01:00:41;;;;;;;6.78;5.68;;;14.00;59.30;;;;;;5036146;28;20049;-81
2022/06/01 01:03:10;;;;;;;5.07;4.55;;;14.00;59.30;;;;;;5038030;28;20407;-81
2022/06/01 01:05:39;;;;;;;6.82;5.47;;;14.00;59.40;;;;;;5048587;28;20073;-80
2022/06/01 01:08:05;;;;;;;5.80;5.20;;;14.00;59.50;;;;;;5030318;28;20052;-81
2022/06/01 01:10:31;;;;;;;7.18;6.13;;;13.90;59.50;;;;;;5025213;28;20045;-81
2022/06/01 01:12:59;;;;;;;6.03;5.32;;;13.90;59.50;;;;;;5039209;28;20037;-80
2022/06/01 01:15:55;;;;;;;6.18;5.57;;;13.90;59.60;;;;;;5028669;28;20049;-80
2022/06/01 01:18:29;;;;;;;5.53;5.03;;;13.90;59.60;;;;;;4988714;28;20050;-80
2022/06/01 01:21:07;;;;;;;5.68;5.15;;;13.90;59.70;;;;;;4992961;28;20049;-80
2022/06/01 01:23:40;;;;;;;5.97;5.38;;;13.80;59.80;;;;;;4993650;28;20057;-80
2022/06/01 01:26:06;;;;;;;7.85;7.05;;;13.80;59.90;;;;;;4982294;28;20047;-80
2022/06/01 01:28:33;;;;;;;6.60;6.00;;;13.80;60.00;;;;;;4993167;28;20051;-80
2022/06/01 01:31:12;;;;;;;7.03;6.30;;;13.80;60.00;;;;;;4984321;28;20057;-79
2022/06/01 01:33:38;;;;;;;8.38;6.50;;;13.80;60.10;;;;;;4977390;28;20137;-81
2022/06/01 01:36:09;;;;;;;6.28;5.57;;;13.80;60.20;;;;;;4992420;28;20178;-79
2022/06/01 01:38:52;;;;;;;7.80;7.10;;;13.70;60.20;;;;;;4978225;28;20061;-78
2022/06/01 01:41:24;;;;;;;10.13;9.13;;;13.70;60.30;;;;;;4987146;28;20461;-79
2022/06/01 01:44:09;;;;;;;9.00;8.10;;;13.60;60.50;;;;;;4984229;28;20121;-80
2022/06/01 01:46:36;;;;;;;6.85;6.15;;;13.70;60.50;;;;;;4992254;28;20090;-80
2022/06/01 01:49:02;;;;;;;8.60;7.78;;;13.60;60.60;;;;;;4994379;28;20098;-80
2022/06/01 01:51:29;;;;;;;6.72;6.13;;;13.60;60.70;;;;;;4993357;28;20050;-79
2022/06/01 01:53:59;;;;;;;8.43;7.63;;;13.60;60.70;;;;;;4998918;28;20132;-80
2022/06/01 01:56:24;;;;;;;10.80;9.75;;;13.60;60.80;;;;;;5038862;28;20505;-79
2022/06/01 01:59:21;;;;;;;7.78;6.95;;;13.60;60.90;;;;;;5029585;28;20060;-80
2022/06/01 02:01:55;;;;;;;7.28;6.47;;;13.60;61.00;;;;;;5052345;28;20061;-80
2022/06/01 02:07:29;;;;;;;9.10;8.20;;;13.60;61.10;;;;;;5044645;28;20298;-79
2022/06/01 02:12:41;;;;;;;8.73;7.88;;;13.50;61.30;;;;;;5036734;28;20046;-80
2022/06/01 02:15:14;;;;;;;8.63;7.60;;;13.50;61.30;;;;;;5036628;28;20037;-80
2022/06/01 02:17:49;;;;;;;11.05;9.95;;;13.50;61.40;;;;;;5052646;28;20053;-78
2022/06/01 02:20:33;;;;;;;9.55;8.68;;;13.50;61.70;;;;;;5055153;28;20525;-79
2022/06/01 02:23:00;;;;;;;8.80;7.90;;;13.50;62.00;;;;;;5046782;28;20052;-79
2022/06/01 02:25:27;;;;;;;12.45;11.15;;;13.50;61.80;;;;;;5036981;28;20396;-79
2022/06/01 02:27:57;;;;;;;13.52;12.23;;;13.50;62.10;;;;;;5043486;28;20080;-81
2022/06/01 02:30:33;;;;;;;14.13;12.75;;;13.50;62.30;;;;;;5058325;28;20087;-81
2022/06/01 02:33:00;;;;;;;11.57;10.48;;;13.50;62.60;;;;;;5033320;28;20084;-79
2022/06/01 02:35:29;;;;;;;14.35;12.77;;;13.50;62.60;;;;;;5055176;28;20131;-80
2022/06/01 02:37:58;;;;;;;16.98;15.32;;;13.50;62.90;;;;;;5022218;28;20049;-80
2022/06/01 02:40:25;;;;;;;17.45;15.75;;;13.50;63.50;;;;;;5042566;28;20067;-80
2022/06/01 02:42:52;;;;;;;18.30;16.40;;;13.40;63.80;;;;;;5049559;28;20045;-80
2022/06/01 02:45:24;;;;;;;12.23;11.13;;;13.40;64.20;;;;;;5023123;28;20133;-80
2022/06/01 02:47:55;;;;;;;11.73;10.27;;;13.40;64.20;;;;;;5059363;28;20053;-80
2022/06/01 02:50:24;;;;;;;12.43;11.20;;;13.40;63.90;;;;;;5064933;28;20045;-80
2022/06/01 02:52:50;;;;;;;10.45;9.35;;;13.40;63.70;;;;;;5059138;28;20463;-80
2022/06/01 02:55:18;;;;;;;10.80;9.82;;;13.50;63.60;;;;;;5037406;28;20088;-80
2022/06/01 02:57:44;;;;;;;10.85;9.75;;;13.40;63.50;;;;;;5028123;28;20076;-80
2022/06/01 03:00:20;;;;;;;9.88;8.93;;;13.40;63.40;;;;;;5043071;28;20048;-78
2022/06/01 03:02:57;;;;;;;9.70;8.80;;;13.40;63.30;;;;;;5039946;28;20053;-78
2022/06/01 03:05:29;;;;;;;10.90;9.02;;;13.30;63.10;;;;;;5034221;28;20120;-79
2022/06/01 03:07:55;;;;;;;8.43;7.63;;;13.30;63.10;;;;;;5046609;28;20041;-80
2022/06/01 03:10:21;;;;;;;9.63;8.73;;;13.40;63.00;;;;;;5034345;28;20033;-81
2022/06/01 03:12:47;;;;;;;9.80;8.88;;;13.40;63.10;;;;;;5046512;28;20078;-80
2022/06/01 03:15:16;;;;;;;10.15;9.20;;;13.40;63.00;;;;;;5033581;28;20045;-81
2022/06/01 03:17:42;;;;;;;8.80;8.00;;;13.40;63.10;;;;;;5037697;28;20057;-81
2022/06/01 03:20:09;;;;;;;9.68;8.77;;;13.40;63.00;;;;;;5049388;28;20056;-81
2022/06/01 03:22:36;;;;;;;10.07;9.07;;;13.30;63.00;;;;;;5043470;28;20546;-81
2022/06/01 03:25:07;;;;;;;8.82;7.97;;;13.30;63.00;;;;;;5017433;28;20084;-81
2022/06/01 03:27:33;;;;;;;8.65;7.75;;;13.30;62.90;;;;;;5042615;28;20168;-81
2022/06/01 03:29:59;;;;;;;8.57;7.68;;;13.40;62.90;;;;;;5042111;28;20037;-81
2022/06/01 03:32:24;;;;;;;9.18;8.27;;;13.30;62.80;;;;;;5034149;28;20496;-81
2022/06/01 03:34:50;;;;;;;10.18;9.18;;;13.30;62.80;;;;;;5025949;28;20476;-81
2022/06/01 03:37:16;;;;;;;9.05;8.25;;;13.40;63.00;;;;;;5030077;28;20465;-80
2022/06/01 03:39:41;;;;;;;9.93;8.98;;;13.30;63.00;;;;;;5017651;28;20561;-80
2022/06/01 03:42:07;;;;;;;11.65;10.55;;;13.30;63.10;;;;;;5034389;28;20072;-80
2022/06/01 03:47:17;;;;;;;14.60;13.13;;;13.30;63.40;;;;;;5031423;28;20048;-79
2022/06/01 03:49:43;;;;;;;11.38;10.27;;;13.20;63.80;;;;;;5052868;28;20060;-79
2022/06/01 03:52:10;;;;;;;14.80;13.38;;;13.20;63.90;;;;;;5032367;28;20120;-80
2022/06/01 03:54:37;;;;;;;17.85;16.15;;;13.20;64.10;;;;;;5027280;28;20091;-80
2022/06/01 03:57:03;;;;;;;14.45;13.05;;;13.10;64.30;;;;;;5050593;28;20047;-80
2022/06/01 03:59:30;;;;;;;15.35;13.85;;;13.10;64.60;;;;;;5031114;28;20045;-80
2022/06/01 04:02:00;;;;;;;15.18;13.75;;;13.10;64.70;;;;;;5038584;28;20053;-79
2022/06/01 04:04:26;;;;;;;14.82;13.43;;;13.10;64.80;;;;;;5049811;28;20095;-79
2022/06/01 04:06:51;;;;;;;14.82;13.32;;;13.00;64.90;;;;;;5052688;28;20033;-79
2022/06/01 04:09:17;;;;;;;15.60;14.00;;;13.00;64.80;;;;;;5042297;28;20368;-79
2022/06/01 04:11:42;;;;;;;14.90;13.50;;;13.00;64.90;;;;;;5053422;28;20048;-79
2022/06/01 04:14:08;;;;;;;17.98;16.17;;;13.00;65.00;;;;;;5032326;28;20041;-79
2022/06/01 04:16:34;;;;;;;18.40;16.30;;;13.00;65.60;;;;;;5040193;28;20077;-78
2022/06/01 04:18:59;;;;;;;13.57;12.27;;;13.00;65.30;;;;;;5020073;28;20038;-78
2022/06/01 04:21:27;;;;;;;16.08;14.57;;;12.90;65.20;;;;;;5053310;28;20484;-77
2022/06/01 04:23:57;;;;;;;14.43;13.02;;;12.90;65.30;;;;;;5039835;28;20040;-77
2022/06/01 04:26:22;;;;;;;17.73;15.93;;;12.90;65.50;;;;;;5045604;28;20072;-78
2022/06/01 04:28:48;;;;;;;17.23;15.57;;;12.90;65.50;;;;;;5041600;28;20061;-77
2022/06/01 04:31:13;;;;;;;16.30;14.70;;;12.90;65.80;;;;;;5052456;28;20114;-78
2022/06/01 04:33:42;;;;;;;10.73;9.73;;;12.90;65.80;;;;;;5034487;28;20543;-78
2022/06/01 04:36:07;;;;;;;15.77;14.35;;;12.90;65.80;;;;;;5028797;28;20053;-78
2022/06/01 04:38:33;;;;;;;12.38;11.18;;;12.90;65.80;;;;;;5041357;28;20041;-79
2022/06/01 04:40:58;;;;;;;16.42;14.73;;;12.90;65.80;;;;;;5036834;28;20048;-76
2022/06/01 04:43:24;;;;;;;13.13;11.73;;;12.90;65.90;;;;;;5016019;28;20041;-77
2022/06/01 04:45:51;;;;;;;14.77;13.30;;;12.90;65.90;;;;;;5034651;28;20048;-77
2022/06/01 04:48:16;;;;;;;14.15;12.75;;;12.90;65.90;;;;;;5039074;28;20455;-77
2022/06/01 04:50:42;;;;;;;13.95;12.55;;;12.90;65.90;;;;;;5040425;28;20069;-77
2022/06/01 04:53:13;;;;;;;13.15;11.95;;;12.90;65.80;;;;;;5034813;28;20041;-76
2022/06/01 04:55:40;;;;;;;14.75;13.30;;;12.90;66.00;;;;;;5042576;28;20124;-79
2022/06/01 04:58:05;;;;;;;15.70;14.20;;;12.90;66.00;;;;;;5035350;28;20480;-76
2022/06/01 05:00:33;;;;;;;15.15;13.75;;;13.00;66.20;;;;;;5028764;28;20077;-78
2022/06/01 05:02:59;;;;;;;15.68;14.18;;;13.00;66.20;;;;;;5031961;28;20050;-77
2022/06/01 05:05:25;;;;;;;14.63;13.25;;;13.00;66.40;;;;;;5030622;28;20493;-77
2022/06/01 05:07:51;;;;;;;17.45;15.70;;;13.00;66.50;;;;;;5050505;28;20056;-78
2022/06/01 05:10:17;;;;;;;16.73;15.13;;;13.10;66.70;;;;;;5035053;28;20533;-77
2022/06/01 05:12:43;;;;;;;19.48;17.60;;;13.10;66.70;;;;;;5036880;28;20045;-78
2022/06/01 05:15:09;;;;;;;17.70;16.00;;;13.10;66.80;;;;;;5035318;28;20099;-78
2022/06/01 05:17:35;;;;;;;16.15;14.65;;;13.10;66.90;;;;;;5036791;28;20061;-78
2022/06/01 05:20:01;;;;;;;18.25;16.48;;;13.20;66.90;;;;;;5036253;28;20429;-78
2022/06/01 05:22:26;;;;;;;16.25;14.68;;;13.20;67.00;;;;;;5036579;28;20048;-78
2022/06/01 05:24:52;;;;;;;18.98;17.10;;;13.30;67.10;;;;;;5024748;28;20041;-78
2022/06/01 05:27:18;;;;;;;17.73;15.93;;;13.30;67.20;;;;;;5016555;28;20173;-78
2022/06/01 05:29:43;;;;;;;19.50;17.48;;;13.30;67.30;;;;;;5021474;28;20481;-78
2022/06/01 05:32:11;;;;;;;17.83;16.02;;;13.40;67.40;;;;;;5015156;28;20038;-79
2022/06/01 05:34:36;;;;;;;19.85;18.02;;;13.40;67.40;;;;;;5022465;28;20089;-78
2022/06/01 05:37:02;;;;;;;16.83;15.18;;;13.50;67.40;;;;;;5034974;28;20041;-78
2022/06/01 05:39:28;;;;;;;18.80;16.83;;;13.50;67.40;;;;;;5026552;28;20041;-78
2022/06/01 05:41:54;;;;;;;17.40;15.68;;;13.60;68.00;;;;;;5034381;28;20050;-78
2022/06/01 05:44:19;;;;;;;14.10;12.70;;;13.80;68.40;;;;;;5022925;28;20049;-77
2022/06/01 05:46:45;;;;;;;15.07;13.48;;;14.20;67.60;;;;;;5016428;28;20069;-78
2022/06/01 05:49:13;;;;;;;13.05;11.85;;;14.70;67.40;;;;;;5019496;28;20033;-77
2022/06/01 05:51:38;;;;;;;12.07;10.90;;;15.10;66.40;;;;;;5031498;28;20140;-78
2022/06/01 05:54:04;;;;;;;11.70;10.60;;;15.70;65.40;;;;;;5034060;28;21589;-79
2022/06/01 05:56:30;;;;;;;11.50;10.30;;;16.20;64.30;;;;;;5015922;28;20034;-78
2022/06/01 05:58:55;;;;;;;12.50;11.30;;;16.80;62.70;;;;;;5015322;28;20046;-79
2022/06/01 06:01:22;;;;;;;11.23;10.13;;;17.20;60.80;;;;;;5037999;28;20037;-79
2022/06/01 06:03:50;;;;;;;11.00;9.90;;;17.50;59.70;;;;;;5054643;28;20492;-78
2022/06/01 06:06:17;;;;;;;11.18;10.18;;;17.80;58.90;;;;;;5046796;28;20060;-76
2022/06/01 06:08:49;;;;;;;10.63;9.73;;;18.00;58.00;;;;;;5033890;28;20542;-79
2022/06/01 06:11:16;;;;;;;11.60;10.43;;;18.10;57.30;;;;;;5034185;28;20041;-77
2022/06/01 06:13:42;;;;;;;11.35;10.20;;;18.30;56.90;;;;;;5037531;28;20034;-77
2022/06/01 06:16:08;;;;;;;13.93;12.40;;;18.30;56.70;;;;;;5051078;28;20491;-77
2022/06/01 06:18:35;;;;;;;12.90;11.70;;;18.30;56.20;;;;;;5055456;28;20134;-77
2022/06/01 06:21:00;;;;;;;14.43;13.07;;;18.40;56.10;;;;;;5043678;28;20033;-77
2022/06/01 06:23:26;;;;;;;12.68;11.52;;;18.40;56.00;;;;;;5035140;28;20500;-77
2022/06/01 06:25:51;;;;;;;12.93;11.70;;;18.40;56.50;;;;;;5025742;28;20059;-76
2022/06/01 06:28:17;;;;;;;12.13;10.88;;;18.40;55.90;;;;;;5035318;28;20045;-78
2022/06/01 06:30:43;;;;;;;12.90;11.80;;;18.30;55.80;;;;;;5050546;28;20049;-77
2022/06/01 06:33:09;;;;;;;13.07;11.73;;;18.30;55.70;;;;;;5053818;28;20123;-77
2022/06/01 06:35:34;;;;;;;11.60;10.45;;;18.30;55.70;;;;;;5052169;28;20040;-77
2022/06/01 06:38:01;;;;;;;11.85;10.75;;;18.20;55.70;;;;;;5036774;28;20128;-77
2022/06/01 06:40:27;;;;;;;11.48;10.43;;;18.20;55.70;;;;;;5053080;28;20041;-76
2022/06/01 06:42:53;;;;;;;11.43;10.32;;;18.10;55.70;;;;;;5053311;28;20120;-77
2022/06/01 06:45:19;;;;;;;10.98;9.93;;;18.10;55.70;;;;;;5033415;28;20119;-77
2022/06/01 06:47:46;;;;;;;11.13;10.02;;;18.00;55.80;;;;;;5035127;28;20123;-77
2022/06/01 06:50:14;;;;;;;9.95;8.95;;;18.00;56.00;;;;;;5050807;28;20120;-77
2022/06/01 06:52:39;;;;;;;11.57;10.48;;;17.90;56.00;;;;;;5053385;28;20544;-77
2022/06/01 06:55:07;;;;;;;10.95;9.82;;;17.90;56.10;;;;;;5053194;28;20127;-77
2022/06/01 06:57:32;;;;;;;10.65;9.55;;;17.80;56.00;;;;;;5041909;28;20043;-77
2022/06/01 06:59:58;;;;;;;8.85;7.78;;;17.70;56.10;;;;;;5033281;28;20370;-77
2022/06/01 07:02:24;;;;;;;7.13;6.43;;;17.70;56.30;;;;;;5039980;28;20049;-77
2022/06/01 07:04:50;;;;;;;6.80;6.20;;;17.60;56.20;;;;;;5044762;28;20047;-77
2022/06/01 07:07:15;;;;;;;6.10;5.50;;;17.50;56.00;;;;;;5035296;28;20033;-79
2022/06/01 07:09:41;;;;;;;6.00;4.88;;;17.40;56.00;;;;;;5038956;28;20373;-77
2022/06/01 07:12:07;;;;;;;5.28;4.28;;;17.30;56.00;;;;;;5033502;28;20053;-77
2022/06/01 07:14:33;;;;;;;4.90;4.40;;;17.20;56.00;;;;;;5035756;28;20063;-76
2022/06/01 07:17:00;;;;;;;8.57;5.30;;;17.20;56.10;;;;;;5023063;28;20045;-77
2022/06/01 07:19:26;;;;;;;5.63;4.38;;;17.10;56.10;;;;;;5034105;28;20124;-77
2022/06/01 07:21:52;;;;;;;5.25;4.30;;;17.00;56.10;;;;;;5042301;28;20041;-76
2022/06/01 07:24:18;;;;;;;5.50;4.68;;;17.00;56.60;;;;;;5032673;28;20057;-77
2022/06/01 07:26:46;;;;;;;6.05;4.93;;;17.00;56.50;;;;;;5035316;28;20042;-77
2022/06/01 07:29:14;;;;;;;5.65;5.15;;;17.00;56.80;;;;;;5033815;28;20076;-77
2022/06/01 07:31:41;;;;;;;6.90;6.00;;;16.90;57.10;;;;;;5032991;28;20099;-77
2022/06/01 07:34:07;;;;;;;6.78;5.78;;;16.90;57.40;;;;;;5033455;28;20045;-77
2022/06/01 07:36:34;;;;;;;5.75;4.93;;;16.90;57.40;;;;;;5034748;28;20568;-77
2022/06/01 07:43:05;;;;;;;4.57;3.53;;;16.80;57.70;;;;;;5041604;28;20049;-77
2022/06/01 07:44:43;;;;;;;4.95;3.10;;;16.80;57.60;;;;;;5033568;28;20046;-77
2022/06/01 07:47:11;;;;;;;4.18;2.92;;;16.70;57.60;;;;;;5016777;28;20129;-77
2022/06/01 07:49:37;;;;;;;4.25;2.90;;;16.70;57.60;;;;;;5034747;28;20041;-77
2022/06/01 07:52:04;;;;;;;3.28;2.80;;;16.70;57.30;;;;;;5033377;28;20099;-76
2022/06/01 07:54:30;;;;;;;6.03;4.20;;;16.80;57.30;;;;;;5044739;28;20040;-77
2022/06/01 07:56:57;;;;;;;6.07;5.40;;;16.80;57.70;;;;;;5038452;28;20471;-77
2022/06/01 07:59:22;;;;;;;5.90;5.30;;;16.90;58.70;;;;;;5053205;28;20124;-76
2022/06/01 08:01:48;;;;;;;6.07;5.35;;;17.10;58.80;;;;;;5021319;28;20136;-77
2022/06/01 08:04:16;;;;;;;5.70;4.05;;;17.40;58.20;;;;;;5041738;28;20488;-79
2022/06/01 08:06:42;;;;;;;3.70;3.00;;;17.70;57.80;;;;;;5048780;28;20087;-76
2022/06/01 08:09:08;;;;;;;3.75;2.20;;;18.00;57.00;;;;;;5051773;28;20431;-76
2022/06/01 08:14:18;;;;;;;3.70;2.72;;;18.70;55.10;;;;;;5047405;28;20049;-78
2022/06/01 08:16:47;;;;;;;3.95;3.15;;;19.00;54.70;;;;;;5047539;28;20060;-78
2022/06/01 08:19:15;;;;;;;4.68;4.03;;;19.30;53.80;;;;;;5053063;28;20497;-77
2022/06/01 08:21:41;;;;;;;3.95;3.53;;;19.50;53.50;;;;;;5034884;28;20051;-77
2022/06/01 08:24:07;;;;;;;5.10;4.68;;;19.60;54.00;;;;;;5034946;28;20435;-77
2022/06/01 08:26:34;;;;;;;6.25;4.68;;;19.80;53.10;;;;;;5052937;28;20041;-76
2022/06/01 08:29:00;;;;;;;6.07;4.90;;;19.90;52.70;;;;;;5034892;28;20143;-77
2022/06/01 08:31:29;;;;;;;6.63;4.50;;;20.00;52.80;;;;;;5035203;28;20049;-77
2022/06/01 08:33:56;;;;;;;5.53;4.30;;;20.00;52.60;;;;;;5052168;28;20103;-78
2022/06/01 08:36:22;;;;;;;8.90;5.22;;;20.10;52.60;;;;;;5050889;28;20045;-78
2022/06/01 08:38:48;;;;;;;4.72;3.42;;;20.20;52.20;;;;;;5050512;28;20049;-79
2022/06/01 08:41:15;;;;;;;3.38;3.03;;;20.20;52.10;;;;;;5053838;28;20037;-79
2022/06/01 08:43:45;;;;;;;3.88;3.10;;;20.40;51.70;;;;;;5037700;28;20132;-79
2022/06/01 08:46:12;;;;;;;3.55;2.25;;;20.40;51.30;;;;;;5050593;28;20048;-80
2022/06/01 08:48:44;;;;;;;2.67;1.70;;;20.50;50.90;;;;;;5054073;28;20137;-79
2022/06/01 08:51:11;;;;;;;2.40;1.50;;;20.50;50.50;;;;;;5056562;28;20041;-78
2022/06/01 08:53:38;;;;;;;3.55;2.22;;;20.50;50.40;;;;;;5037588;28;20049;-77
2022/06/01 08:56:25;;;;;;;2.88;2.20;;;20.60;50.20;;;;;;5056989;28;20048;-79
2022/06/01 08:59:15;;;;;;;3.22;1.67;;;20.60;50.20;;;;;;5042704;28;20547;-79
2022/06/01 09:02:05;;;;;;;2.28;1.90;;;20.60;50.40;;;;;;5051881;28;20056;-78
2022/06/01 09:05:05;;;;;;;4.97;3.10;;;20.60;50.50;;;;;;5036919;28;20080;-78
2022/06/01 09:07:56;;;;;;;3.40;1.90;;;20.70;49.50;;;;;;5037696;28;20049;-78
2022/06/01 09:10:39;;;;;;;2.17;1.58;;;20.60;48.70;;;;;;5023010;28;20053;-79
2022/06/01 09:13:30;;;;;;;2.03;1.60;;;20.60;49.10;;;;;;5056364;28;20102;-78
2022/06/01 09:16:02;;;;;;;10.38;2.53;;;20.50;49.20;;;;;;5056481;28;20108;-78
2022/06/01 09:18:37;;;;;;;2.83;1.60;;;20.50;49.40;;;;;;5053677;28;20045;-79
2022/06/01 09:23:47;;;;;;;1.63;1.30;;;20.50;49.10;;;;;;5041025;28;20045;-77
2022/06/01 09:26:29;;;;;;;2.03;1.40;;;20.50;49.80;;;;;;5036498;28;20072;-78
2022/06/01 09:29:00;;;;;;;3.95;1.85;;;20.70;49.40;;;;;;5037550;28;20051;-77
2022/06/01 09:31:42;;;;;;;2.28;1.50;;;20.70;48.10;;;;;;5054905;28;20064;-77
2022/06/01 09:34:15;;;;;;;2.05;1.33;;;20.70;48.10;;;;;;5037570;28;20065;-77
2022/06/01 09:37:05;;;;;;;2.88;1.90;;;20.60;47.90;;;;;;5037436;28;20052;-78
2022/06/01 09:39:32;;;;;;;2.15;1.63;;;20.60;48.60;;;;;;5019738;28;20095;-78
2022/06/01 09:42:30;;;;;;;2.67;1.17;;;20.50;48.10;;;;;;5054306;28;20053;-78
2022/06/01 09:44:59;;;;;;;2.75;1.00;;;20.50;47.80;;;;;;4957816;28;20063;-77
2022/06/01 09:47:40;;;;;;;1.70;0.93;;;20.50;47.00;;;;;;4939794;29;20099;-77
2022/06/01 09:50:45;;;;;;;1.00;0.80;;;20.60;46.50;;;;;;4972295;28;20133;-76
2022/06/01 09:53:11;;;;;;;2.88;1.10;;;20.70;47.00;;;;;;4967845;28;20526;-78
2022/06/01 09:55:56;;;;;;;1.52;1.20;;;20.80;46.90;;;;;;4940130;29;20066;-78
2022/06/01 10:07:28;;;;;;;1.77;0.50;;;21.20;46.10;;;;;;4974707;28;20262;-80
2022/06/01 10:10:06;;;;;;;0.68;0.40;;;21.30;46.20;;;;;;4972926;28;20126;-80
2022/06/01 10:12:50;;;;;;;1.20;0.40;;;21.20;46.80;;;;;;4958359;28;20045;-78
2022/06/01 10:15:15;;;;;;;;;;;21.20;46.60;;;;;;4971321;28;20063;-79
2022/06/01 10:17:44;;;;;;;0.50;0.40;;;21.20;47.70;;;;;;4974028;28;19969;-78
2022/06/01 10:20:22;;;;;;;1.58;0.45;;;21.20;47.70;;;;;;4996015;28;20045;-79
2022/06/01 10:23:00;;;;;;;1.17;0.60;;;21.20;47.70;;;;;;5036295;28;20488;-80
2022/06/01 10:25:41;;;;;;;0.80;0.40;;;21.20;48.10;;;;;;5047676;28;20048;-77
2022/06/01 10:28:17;;;;;;;0.30;0.25;;;21.20;47.50;;;;;;5037557;28;20102;-77
2022/06/01 10:30:53;;;;;;;1.25;0.47;;;21.20;47.80;;;;;;5020369;28;20056;-79
2022/06/01 10:33:29;;;;;;;0.85;0.60;;;21.30;47.50;;;;;;5035233;28;20136;-78
2022/06/01 10:36:12;;;;;;;0.93;0.60;;;21.30;47.00;;;;;;5052366;28;20099;-79
2022/06/01 10:38:55;;;;;;;1.33;0.82;;;21.30;46.10;;;;;;5055079;28;20041;-83
2022/06/01 10:41:29;;;;;;;1.63;1.00;;;21.30;45.80;;;;;;5055034;28;20077;-79
2022/06/01 10:44:21;;;;;;;1.25;0.75;;;21.20;45.50;;;;;;5026773;28;20057;-78
2022/06/01 10:46:55;;;;;;;0.93;0.50;;;21.10;45.20;;;;;;5044111;28;20049;-79
2022/06/01 10:49:49;;;;;;;1.13;0.68;;;20.80;43.80;;;;;;5031769;28;20054;-79
2022/06/01 10:52:41;;;;;;;0.88;0.63;;;20.60;45.00;;;;;;5032615;28;20049;-80
2022/06/01 10:55:22;;;;;;;2.65;0.93;;;20.40;46.00;;;;;;5041291;28;20049;-79
2022/06/01 10:57:49;;;;;;;0.73;0.40;;;20.10;45.90;;;;;;5050788;28;20122;-79
2022/06/01 11:00:21;;;;;;;0.65;0.47;;;19.90;46.70;;;;;;5038573;28;20100;-79
2022/06/01 11:03:08;;;;;;;2.38;0.57;;;19.80;47.50;;;;;;5031482;28;20508;-80
2022/06/01 11:05:51;;;;;;;3.33;0.57;;;19.60;48.10;;;;;;5031989;28;20536;-80
2022/06/01 11:08:58;;;;;;;1.80;0.40;;;19.50;47.90;;;;;;5024459;28;20561;-80
2022/06/01 11:11:40;;;;;;;3.95;0.50;;;19.30;48.50;;;;;;4969951;28;20059;-79
2022/06/01 11:14:20;;;;;;;2.30;0.50;;;19.20;48.80;;;;;;4983792;28;20505;-79
2022/06/01 11:16:51;;;;;;;0.88;0.40;;;19.00;49.30;;;;;;4988039;28;20108;-80
2022/06/01 11:19:41;;;;;;;1.00;0.32;;;19.00;49.80;;;;;;4971578;28;20069;-80
2022/06/01 11:22:25;;;;;;;2.78;0.60;;;18.80;50.10;;;;;;4972110;28;20062;-80
2022/06/01 11:25:07;;;;;;;0.90;0.40;;;18.80;50.60;;;;;;4968248;28;20054;-80
2022/06/01 11:28:05;;;;;;;0.88;0.50;;;18.70;50.70;;;;;;4988119;28;20050;-80
2022/06/01 11:31:01;;;;;;;1.02;0.47;;;18.60;50.90;;;;;;4970558;28;20058;-79
2022/06/01 11:33:48;;;;;;;0.55;0.40;;;18.50;51.00;;;;;;4988090;28;20536;-80
2022/06/01 11:36:25;;;;;;;1.02;0.50;;;18.40;51.20;;;;;;4983723;28;20214;-79
2022/06/01 11:39:05;;;;;;;0.85;0.43;;;18.30;51.20;;;;;;4968732;28;20054;-79
2022/06/01 11:41:35;;;;;;;0.45;0.30;;;18.30;52.40;;;;;;4971099;28;20109;-79
2022/06/01 11:44:03;;;;;;;1.65;0.68;;;18.20;53.00;;;;;;4966909;28;20397;-79
2022/06/01 11:46:38;;;;;;;0.40;0.40;;;18.20;54.10;;;;;;4986679;28;20521;-78
2022/06/01 11:49:26;;;;;;;1.75;0.50;;;18.30;55.10;;;;;;5027680;28;20397;-79
2022/06/01 11:51:51;;;;;;;1.30;0.52;;;18.30;55.30;;;;;;5048849;28;20052;-79
2022/06/01 11:54:33;;;;;;;1.50;0.50;;;18.30;55.10;;;;;;5049476;28;20053;-79
2022/06/01 11:57:18;;;;;;;1.10;0.70;;;18.40;55.10;;;;;;5033594;28;20089;-79
2022/06/01 11:59:51;;;;;;;1.15;0.82;;;18.40;54.70;;;;;;5037560;28;20037;-79
2022/06/01 12:02:47;;;;;;;1.15;0.77;;;18.40;54.20;;;;;;5048899;28;20067;-79
2022/06/01 12:05:29;;;;;;;1.90;1.20;;;18.50;54.50;;;;;;5048110;28;20057;-79
2022/06/01 12:08:01;;;;;;;2.50;1.10;;;18.60;54.90;;;;;;5032550;28;20065;-78
2022/06/01 12:10:51;;;;;;;2.38;1.60;;;18.60;55.20;;;;;;5037001;28;20049;-77
2022/06/01 12:13:23;;;;;;;3.03;2.13;;;18.70;55.20;;;;;;5031004;28;20493;-79
2022/06/01 12:16:04;;;;;;;3.22;2.15;;;18.80;55.90;;;;;;5038268;28;20041;-80
2022/06/01 12:18:31;;;;;;;3.00;2.47;;;18.80;54.60;;;;;;5035787;28;20156;-79
2022/06/01 12:21:19;;;;;;;2.70;1.65;;;18.80;54.50;;;;;;5047028;28;20071;-80
2022/06/01 12:29:36;;;;;;;2.10;1.58;;;18.70;55.50;;;;;;5033319;28;20046;-81
2022/06/01 12:32:06;;;;;;;3.08;1.60;;;18.60;55.00;;;;;;5045108;28;20484;-80
2022/06/01 12:34:39;;;;;;;3.35;1.63;;;18.50;54.50;;;;;;5035791;28;20503;-79
2022/06/01 12:37:06;;;;;;;2.90;1.52;;;18.50;54.60;;;;;;5039924;28;20053;-79
2022/06/01 12:39:38;;;;;;;1.33;0.90;;;18.50;54.80;;;;;;5033414;28;20053;-80
2022/06/01 12:42:15;;;;;;;2.03;1.25;;;18.50;54.80;;;;;;5025767;28;20053;-78
2022/06/01 12:44:44;;;;;;;2.17;1.20;;;18.50;55.10;;;;;;5034159;28;20483;-79
2022/06/01 12:47:23;;;;;;;1.77;0.70;;;18.60;54.60;;;;;;5030946;28;20053;-78
2022/06/01 12:49:49;;;;;;;2.28;0.77;;;18.60;53.70;;;;;;5032387;28;20061;-77
2022/06/01 12:52:24;;;;;;;0.65;0.40;;;18.60;53.50;;;;;;5031476;28;20586;-78
2022/06/01 12:54:50;;;;;;;1.98;0.60;;;18.70;52.70;;;;;;5015409;28;20545;-78
2022/06/01 12:57:23;;;;;;;1.20;0.73;;;18.70;52.50;;;;;;5043172;28;20053;-79
2022/06/01 12:59:59;;;;;;;1.58;0.77;;;18.80;52.10;;;;;;5036634;28;20049;-78
2022/06/01 13:02:27;;;;;;;1.60;0.30;;;18.80;52.20;;;;;;5048466;28;20836;-80
2022/06/01 13:04:54;;;;;;;0.60;0.45;;;18.80;52.30;;;;;;5052711;28;20074;-78
2022/06/01 13:07:32;;;;;;;0.47;0.30;;;18.90;51.60;;;;;;5029483;28;20071;-78
2022/06/01 13:10:06;;;;;;;1.45;0.65;;;18.90;50.70;;;;;;5050175;28;20050;-78
2022/06/01 13:12:33;;;;;;;1.63;1.05;;;18.90;49.70;;;;;;5024226;28;20085;-78
2022/06/01 13:15:12;;;;;;;1.63;1.08;;;18.90;50.60;;;;;;5034678;28;20053;-78
2022/06/01 13:17:56;;;;;;;3.33;0.90;;;18.90;51.00;;;;;;5042396;28;20819;-77
2022/06/01 13:20:42;;;;;;;;;;;18.90;50.80;;;;;;5053013;28;20049;-78
2022/06/01 13:23:30;;;;;;;;;;;18.90;50.90;;;;;;5029810;28;19928;-78
2022/06/01 13:25:59;;;;;;;1.80;0.95;;;18.80;51.20;;;;;;4976049;28;19994;-78
2022/06/01 13:28:25;;;;;;;1.77;1.15;;;18.80;51.20;;;;;;4954339;28;20058;-78
2022/06/01 13:30:52;;;;;;;1.65;1.15;;;18.80;51.20;;;;;;4955026;28;20146;-77
2022/06/01 13:33:31;;;;;;;1.92;0.98;;;18.80;51.20;;;;;;4966748;28;20265;-79